LTAL

Kastamonu

Kastamonu, Turkey
TAF LTAL 141340Z 1415/1424 VRB02KT 9999 FEW040 SCT100 BKN200
Issued Valid From Valid To
Dec-14 @ 13:40 UTC
(3 hours ago)
Dec-14 @ 15:00 UTC
(2 hours ago)
Dec-15 @ 00:00 UTC
(in 7 hours)
Dec-14 @ 15:00 to Dec-15 @ 00:00
TAF LTAL 141340Z 1415/1424 VRB02KT 9999 FEW040 SCT100 BKN200
Wind Visibility Clouds
Variable at 2 knots 10,000+ meters
  • Few at 4,000' AGL
  • Scattered at 10,000' AGL
  • Broken at 20,000' AGL
TAF LTAL 141340Z 1415/1424 VRB02KT 9999 FEW040 SCT100 BKN200
Issued Dec-14 @ 13:40 UTC
(3 hours ago)
Valid From Dec-14 @ 15:00 UTC
(2 hours ago)
Valid To Dec-15 @ 00:00 UTC
(in 7 hours)
Dec-14 @ 15:00 - Dec-15 @ 00:00
Wind Visibility
Variable at 2 knots 10,000+ meters
Clouds
  • Few at 4,000' AGL
  • Scattered at 10,000' AGL
  • Broken at 20,000' AGL